createdAt,value
2022-10-28T00:02:14.817Z,8.30
2022-10-28T00:04:42.050Z,9.30
2022-10-28T00:07:09.158Z,10.20
2022-10-28T00:09:36.162Z,8.60
2022-10-28T00:12:03.292Z,7.40
2022-10-28T00:14:30.315Z,10.80
2022-10-28T00:16:57.475Z,12.80
2022-10-28T00:19:24.730Z,13.00
2022-10-28T00:21:51.875Z,10.20
2022-10-28T00:24:19.022Z,7.80
2022-10-28T00:26:46.459Z,9.20
2022-10-28T00:29:15.930Z,8.50
2022-10-28T00:31:43.109Z,9.70
2022-10-28T00:34:12.539Z,10.40
2022-10-28T00:36:41.800Z,9.70
2022-10-28T00:39:23.532Z,6.60
2022-10-28T00:41:52.701Z,7.90
2022-10-28T00:44:48.152Z,10.60
2022-10-28T00:47:40.919Z,11.10
2022-10-28T00:50:23.195Z,9.40
2022-10-28T00:52:59.552Z,9.00
2022-10-28T00:55:26.708Z,10.10
2022-10-28T00:57:56.801Z,7.30
2022-10-28T01:00:24.998Z,8.60
2022-10-28T01:02:52.252Z,9.00
2022-10-28T01:05:30.174Z,7.60
2022-10-28T01:08:01.952Z,12.70
2022-10-28T01:11:00.953Z,9.90
2022-10-28T01:13:50.227Z,12.40
2022-10-28T01:16:26.454Z,6.30
2022-10-28T01:19:21.727Z,9.50
2022-10-28T01:22:09.102Z,12.00
2022-10-28T01:25:04.532Z,8.40
2022-10-28T01:28:04.300Z,11.00
2022-10-28T01:31:09.258Z,12.50
2022-10-28T01:33:39.314Z,11.20
2022-10-28T01:36:20.180Z,7.80
2022-10-28T01:39:12.060Z,6.60
2022-10-28T01:42:02.576Z,12.70
2022-10-28T01:44:34.718Z,12.90
2022-10-28T01:47:12.014Z,12.30
2022-10-28T01:49:48.182Z,8.60
2022-10-28T01:52:17.607Z,11.90
2022-10-28T01:54:46.458Z,10.60
2022-10-28T01:57:13.616Z,13.90
2022-10-28T01:59:40.861Z,11.40
2022-10-28T02:02:08.014Z,12.00
2022-10-28T02:04:35.165Z,13.70
2022-10-28T02:07:02.415Z,11.20
2022-10-28T02:09:39.698Z,11.80
2022-10-28T02:12:23.461Z,8.40
2022-10-28T02:17:52.566Z,11.90
2022-10-28T02:20:29.339Z,11.00
2022-10-28T02:23:04.298Z,9.80
2022-10-28T02:25:57.331Z,10.90
2022-10-28T02:28:46.658Z,8.20
2022-10-28T02:31:30.098Z,7.70
2022-10-28T02:33:59.932Z,9.40
2022-10-28T02:36:27.796Z,11.60
2022-10-28T02:38:56.324Z,10.60
2022-10-28T02:41:51.896Z,9.90
2022-10-28T02:44:20.969Z,12.50
2022-10-28T02:46:49.098Z,5.60
2022-10-28T02:49:16.133Z,5.70
2022-10-28T02:51:52.783Z,7.60
2022-10-28T02:54:23.046Z,8.70
2022-10-28T02:57:27.332Z,10.40
2022-10-28T03:02:25.720Z,9.20
2022-10-28T03:04:52.889Z,3.40
2022-10-28T03:07:20.227Z,5.10
2022-10-28T03:09:47.306Z,5.40
2022-10-28T03:12:14.619Z,9.90
2022-10-28T03:14:42.697Z,6.40
2022-10-28T03:17:09.758Z,9.60
2022-10-28T03:19:36.759Z,11.70
2022-10-28T03:22:03.875Z,6.00
2022-10-28T03:24:31.096Z,9.00
2022-10-28T03:26:58.162Z,9.90
2022-10-28T03:29:26.118Z,7.40
2022-10-28T03:31:53.129Z,12.50
2022-10-28T03:34:20.204Z,6.80
2022-10-28T03:36:47.232Z,14.10
2022-10-28T03:39:15.217Z,10.70
2022-10-28T03:41:42.270Z,11.80
2022-10-28T03:44:09.414Z,11.20
2022-10-28T03:46:36.461Z,12.40
2022-10-28T03:49:04.122Z,8.70
2022-10-28T03:51:31.272Z,9.90
2022-10-28T03:53:58.422Z,9.50
2022-10-28T03:56:25.530Z,6.50
2022-10-28T04:01:20.681Z,9.50
2022-10-28T04:03:48.068Z,8.80
2022-10-28T04:06:15.296Z,7.10
2022-10-28T04:08:42.712Z,7.90
2022-10-28T04:11:09.902Z,8.00
2022-10-28T04:13:37.028Z,6.20
2022-10-28T04:16:04.826Z,5.90
2022-10-28T04:18:32.373Z,9.00
2022-10-28T04:20:59.556Z,6.80
2022-10-28T04:23:26.672Z,7.50
2022-10-28T04:25:54.448Z,8.60
2022-10-28T04:28:24.323Z,12.40
2022-10-28T04:30:51.389Z,6.90
2022-10-28T04:33:18.400Z,8.50
2022-10-28T04:35:45.510Z,6.70
2022-10-28T04:38:12.734Z,9.00
2022-10-28T04:40:39.975Z,10.30
2022-10-28T04:43:09.669Z,9.30
2022-10-28T04:45:37.921Z,8.70
2022-10-28T04:48:05.165Z,5.60
2022-10-28T04:50:32.388Z,8.40
2022-10-28T04:53:00.662Z,11.40
2022-10-28T04:55:27.709Z,9.30
2022-10-28T04:57:59.159Z,9.80
2022-10-28T05:00:27.145Z,9.90
2022-10-28T05:02:54.721Z,9.10
2022-10-28T05:05:22.201Z,6.80
2022-10-28T05:07:49.316Z,8.30
2022-10-28T05:10:18.393Z,11.30
2022-10-28T05:12:46.073Z,13.20
2022-10-28T05:15:13.812Z,9.50
2022-10-28T05:17:44.544Z,12.70
2022-10-28T05:20:11.928Z,14.80
2022-10-28T05:22:39.157Z,9.30
2022-10-28T05:25:06.375Z,12.50
2022-10-28T05:27:33.452Z,13.10
2022-10-28T05:30:00.537Z,11.10
2022-10-28T05:32:27.689Z,10.50
2022-10-28T05:34:54.672Z,10.80
2022-10-28T05:37:21.677Z,8.70
2022-10-28T05:39:48.791Z,9.50
2022-10-28T05:42:15.866Z,10.00
2022-10-28T05:44:43.399Z,9.90
2022-10-28T05:47:10.444Z,8.90
2022-10-28T05:49:37.599Z,7.00
2022-10-28T05:52:04.744Z,8.10
2022-10-28T05:54:31.893Z,10.10
2022-10-28T05:56:59.150Z,10.70
2022-10-28T05:59:26.252Z,10.10
2022-10-28T06:01:53.365Z,9.00
2022-10-28T06:04:20.597Z,6.60
2022-10-28T06:06:47.758Z,7.40
2022-10-28T06:09:14.892Z,9.40
2022-10-28T06:11:40.643Z,12.20
2022-10-28T06:14:07.660Z,8.20
2022-10-28T06:16:34.713Z,11.10
2022-10-28T06:19:01.704Z,11.30
2022-10-28T06:21:28.804Z,7.00
2022-10-28T06:23:55.901Z,9.40
2022-10-28T06:26:23.012Z,10.00
2022-10-28T06:28:50.159Z,9.90
2022-10-28T06:31:17.311Z,11.80
2022-10-28T06:33:44.360Z,9.20
2022-10-28T06:36:11.551Z,10.30
2022-10-28T06:38:38.667Z,8.00
2022-10-28T06:41:05.767Z,9.00
2022-10-28T06:43:32.866Z,10.70
2022-10-28T06:46:01.250Z,9.10
2022-10-28T06:48:29.841Z,9.90
2022-10-28T06:50:57.987Z,11.10
2022-10-28T06:53:25.781Z,7.00
2022-10-28T06:55:56.699Z,10.70
2022-10-28T06:58:24.867Z,9.60
2022-10-28T07:00:52.323Z,11.90
2022-10-28T07:03:19.394Z,11.20
2022-10-28T07:05:47.108Z,12.70
2022-10-28T07:08:14.701Z,7.80
2022-10-28T07:10:42.250Z,9.30
2022-10-28T07:13:09.426Z,13.50
2022-10-28T07:15:36.463Z,13.60
2022-10-28T07:18:03.508Z,10.30
2022-10-28T07:20:33.143Z,12.80
2022-10-28T07:23:01.396Z,11.70
2022-10-28T07:25:29.322Z,11.60
2022-10-28T07:28:00.106Z,12.80
2022-10-28T07:30:27.647Z,13.40
2022-10-28T07:32:54.952Z,13.90
2022-10-28T07:35:22.377Z,15.50
2022-10-28T07:37:49.460Z,12.60
2022-10-28T07:40:16.591Z,13.00
2022-10-28T07:42:43.731Z,12.30
2022-10-28T07:45:10.726Z,12.70
2022-10-28T07:47:37.812Z,12.80
2022-10-28T07:50:05.567Z,13.90
2022-10-28T07:52:32.556Z,10.10
2022-10-28T07:54:59.782Z,11.20
2022-10-28T07:57:26.928Z,10.30
2022-10-28T07:59:54.075Z,10.90
2022-10-28T08:02:23.466Z,12.40
2022-10-28T08:04:50.926Z,16.90
2022-10-28T08:07:18.074Z,13.90
2022-10-28T08:09:45.220Z,9.30
2022-10-28T08:12:15.744Z,9.40
2022-10-28T08:14:42.821Z,12.50
2022-10-28T08:17:09.995Z,15.00
2022-10-28T08:19:37.257Z,12.40
2022-10-28T08:22:04.369Z,12.90
2022-10-28T08:24:31.570Z,12.60
2022-10-28T08:26:58.648Z,13.20
2022-10-28T08:29:29.049Z,12.00
2022-10-28T08:31:58.066Z,11.40
2022-10-28T08:34:29.924Z,8.20
2022-10-28T08:36:57.531Z,9.20
2022-10-28T08:39:25.018Z,10.60
2022-10-28T08:42:30.303Z,10.40
2022-10-28T08:45:04.027Z,9.60
2022-10-28T08:47:43.481Z,10.80
2022-10-28T08:50:16.215Z,11.70
2022-10-28T08:52:48.661Z,11.70
2022-10-28T08:55:28.613Z,10.20
2022-10-28T08:58:16.653Z,10.40
2022-10-28T09:00:46.673Z,8.60
2022-10-28T09:03:13.824Z,9.50
2022-10-28T09:05:42.912Z,9.10
2022-10-28T09:08:21.948Z,6.70
2022-10-28T09:10:55.338Z,9.60
2022-10-28T09:16:29.576Z,7.80
2022-10-28T09:18:57.959Z,7.70
2022-10-28T09:21:57.566Z,7.30
2022-10-28T09:24:52.672Z,10.10
2022-10-28T09:27:55.528Z,9.00
2022-10-28T09:30:38.103Z,6.50
2022-10-28T09:33:28.775Z,5.70
2022-10-28T09:35:55.840Z,6.40
2022-10-28T09:38:28.293Z,7.90
2022-10-28T09:41:20.223Z,10.60
2022-10-28T09:43:58.979Z,9.50
2022-10-28T09:46:27.225Z,8.50
2022-10-28T09:48:56.801Z,7.10
2022-10-28T09:51:50.657Z,7.20
2022-10-28T09:56:45.949Z,10.90
2022-10-28T09:59:14.728Z,7.60
2022-10-28T10:01:42.951Z,5.70
2022-10-28T10:04:18.777Z,7.40
2022-10-28T10:06:46.014Z,7.10
2022-10-28T10:09:30.437Z,6.00
2022-10-28T10:12:01.195Z,8.40
2022-10-28T10:14:35.627Z,11.70
2022-10-28T10:17:08.282Z,8.40
2022-10-28T10:20:15.283Z,17.70
2022-10-28T10:22:43.859Z,7.10
2022-10-28T10:25:20.128Z,8.60
2022-10-28T10:28:16.574Z,9.90
2022-10-28T10:31:01.067Z,5.60
2022-10-28T10:33:36.281Z,5.70
2022-10-28T10:36:16.309Z,5.70
2022-10-28T10:40:58.104Z,6.30
2022-10-28T10:43:31.590Z,6.20
2022-10-28T10:46:03.142Z,6.60
2022-10-28T10:48:32.546Z,5.90
2022-10-28T10:50:59.825Z,6.50
2022-10-28T10:53:28.357Z,9.10
2022-10-28T10:56:01.446Z,9.50
2022-10-28T10:58:36.827Z,7.30
2022-10-28T11:01:05.426Z,6.20
2022-10-28T11:03:38.578Z,5.80
2022-10-28T11:06:24.351Z,6.30
2022-10-28T11:08:59.286Z,6.30
2022-10-28T11:11:39.918Z,6.50
2022-10-28T11:14:31.515Z,7.70
2022-10-28T11:17:02.959Z,5.30
2022-10-28T11:19:37.201Z,7.40
2022-10-28T11:22:19.694Z,5.90
2022-10-28T11:25:02.400Z,5.20
2022-10-28T11:27:51.723Z,8.50
2022-10-28T11:30:27.771Z,6.00
2022-10-28T11:36:08.211Z,5.10
2022-10-28T11:38:49.109Z,5.60
2022-10-28T11:41:29.203Z,6.60
2022-10-28T11:44:04.683Z,7.60
2022-10-28T11:47:08.270Z,5.10
2022-10-28T11:49:43.931Z,5.30
2022-10-28T11:52:44.968Z,5.90
2022-10-28T11:55:18.494Z,4.00
2022-10-28T11:57:57.996Z,4.00
2022-10-28T12:00:46.923Z,6.10
2022-10-28T12:03:37.256Z,8.00
2022-10-28T12:06:32.681Z,5.30
2022-10-28T12:09:21.875Z,6.70
2022-10-28T12:11:49.186Z,5.70
2022-10-28T12:14:40.520Z,8.50
2022-10-28T12:17:35.392Z,4.90
2022-10-28T12:20:09.462Z,8.60
2022-10-28T12:22:40.890Z,7.50
2022-10-28T12:25:09.416Z,6.50
2022-10-28T12:27:37.902Z,4.40
2022-10-28T12:30:25.782Z,7.30
2022-10-28T12:33:07.384Z,9.30
2022-10-28T12:35:36.915Z,5.70
2022-10-28T12:38:16.846Z,8.10
2022-10-28T12:40:46.588Z,6.30
2022-10-28T12:43:21.476Z,6.40
2022-10-28T12:45:48.580Z,6.50
2022-10-28T12:48:17.505Z,4.70
2022-10-28T12:51:01.895Z,4.30
2022-10-28T12:53:41.735Z,5.90
2022-10-28T12:56:18.921Z,4.40
2022-10-28T12:58:52.279Z,8.10
2022-10-28T13:01:20.029Z,6.80
2022-10-28T13:03:47.409Z,5.60
2022-10-28T13:06:53.471Z,5.90
2022-10-28T13:09:39.582Z,6.20
2022-10-28T13:12:28.546Z,5.20
2022-10-28T13:15:17.698Z,5.10
2022-10-28T13:18:13.001Z,5.10
2022-10-28T13:20:58.590Z,4.50
2022-10-28T13:23:50.925Z,4.30
2022-10-28T13:26:29.780Z,8.00
2022-10-28T13:28:58.433Z,5.30
2022-10-28T13:31:45.857Z,7.40
2022-10-28T13:34:14.275Z,5.60
2022-10-28T13:36:43.024Z,8.70
2022-10-28T13:39:29.842Z,7.50
2022-10-28T13:42:16.339Z,7.50
2022-10-28T13:44:51.344Z,9.80
2022-10-28T13:47:28.664Z,9.50
2022-10-28T13:50:08.941Z,7.90
2022-10-28T13:53:32.107Z,7.50
2022-10-28T13:55:59.221Z,8.40
2022-10-28T13:58:27.068Z,6.80
2022-10-28T14:00:55.156Z,6.00
2022-10-28T14:03:26.083Z,5.30
2022-10-28T14:05:56.688Z,6.40
2022-10-28T14:08:40.509Z,6.00
2022-10-28T14:11:23.968Z,7.80
2022-10-28T14:13:53.826Z,5.50
2022-10-28T14:16:31.026Z,6.40
2022-10-28T14:19:04.729Z,8.30
2022-10-28T14:21:44.864Z,7.40
2022-10-28T14:24:14.298Z,5.70
2022-10-28T14:27:20.448Z,6.10
2022-10-28T14:29:48.306Z,6.40
2022-10-28T14:32:33.573Z,5.40
2022-10-28T14:35:13.317Z,7.00
2022-10-28T14:38:14.370Z,9.80
2022-10-28T14:40:47.653Z,6.90
2022-10-28T14:46:12.267Z,10.30
2022-10-28T14:49:13.994Z,7.60
2022-10-28T14:51:42.714Z,4.50
2022-10-28T14:54:38.194Z,4.80
2022-10-28T14:57:07.975Z,14.30
2022-10-28T14:59:42.358Z,5.50
2022-10-28T15:02:17.358Z,5.30
2022-10-28T15:04:46.021Z,4.30
2022-10-28T15:07:14.967Z,5.20
2022-10-28T15:09:43.758Z,5.50
2022-10-28T15:12:16.898Z,5.20
2022-10-28T15:14:52.347Z,5.50
2022-10-28T15:17:29.268Z,6.00
2022-10-28T15:19:57.838Z,7.60
2022-10-28T15:22:30.894Z,6.00
2022-10-28T15:24:58.966Z,6.90
2022-10-28T15:27:28.414Z,5.70
2022-10-28T15:29:56.103Z,6.40
2022-10-28T15:32:23.122Z,5.80
2022-10-28T15:34:50.214Z,6.80
2022-10-28T15:37:18.662Z,8.70
2022-10-28T15:39:51.033Z,12.90
2022-10-28T15:42:37.798Z,4.50
2022-10-28T15:45:06.111Z,12.00
2022-10-28T15:47:35.344Z,5.80
2022-10-28T15:50:14.809Z,8.40
2022-10-28T15:52:43.428Z,5.00
2022-10-28T15:55:19.798Z,6.80
2022-10-28T15:57:55.652Z,7.40
2022-10-28T16:00:29.502Z,5.70
2022-10-28T16:03:05.482Z,4.80
2022-10-28T16:05:32.778Z,12.50
2022-10-28T16:08:04.628Z,27.40
2022-10-28T16:10:37.408Z,23.50
2022-10-28T16:13:07.716Z,28.90
2022-10-28T16:18:09.508Z,21.30
2022-10-28T16:20:36.603Z,13.50
2022-10-28T16:23:04.527Z,10.30
2022-10-28T16:25:31.937Z,19.70
2022-10-28T16:27:59.027Z,16.50
2022-10-28T16:30:26.066Z,15.70
2022-10-28T16:32:53.465Z,12.40
2022-10-28T16:35:22.634Z,10.30
2022-10-28T16:37:54.746Z,10.70
2022-10-28T16:40:49.629Z,12.80
2022-10-28T16:43:28.932Z,14.40
2022-10-28T16:45:57.211Z,9.90
2022-10-28T16:48:25.803Z,11.50
2022-10-28T16:51:03.487Z,8.40
2022-10-28T16:53:30.844Z,9.90
2022-10-28T16:56:00.857Z,11.40
2022-10-28T16:58:28.839Z,8.80
2022-10-28T17:00:56.154Z,9.20
2022-10-28T17:03:23.348Z,10.40
2022-10-28T17:05:50.475Z,10.70
2022-10-28T17:08:30.757Z,9.50
2022-10-28T17:11:05.053Z,8.40
2022-10-28T17:13:32.210Z,9.30
2022-10-28T17:15:59.250Z,7.90
2022-10-28T17:18:26.322Z,10.20
2022-10-28T17:21:03.603Z,10.50
2022-10-28T17:23:30.734Z,10.20
2022-10-28T17:26:02.189Z,8.70
2022-10-28T17:28:29.342Z,12.10
2022-10-28T17:31:03.936Z,11.70
2022-10-28T17:33:31.164Z,11.20
2022-10-28T17:36:02.855Z,11.70
2022-10-28T17:38:30.325Z,16.10
2022-10-28T17:40:57.615Z,7.90
2022-10-28T17:43:25.339Z,10.40
2022-10-28T17:45:52.493Z,12.40
2022-10-28T17:48:19.720Z,10.70
2022-10-28T17:50:54.679Z,15.10
2022-10-28T17:53:22.539Z,11.50
2022-10-28T17:55:59.455Z,13.00
2022-10-28T17:58:26.749Z,7.10
2022-10-28T18:00:58.436Z,14.20
2022-10-28T18:03:25.823Z,9.90
2022-10-28T18:05:52.933Z,8.70
2022-10-28T18:08:23.568Z,8.40
2022-10-28T18:10:55.352Z,9.20
2022-10-28T18:13:33.370Z,7.10
2022-10-28T18:16:25.770Z,8.70
2022-10-28T18:18:54.358Z,8.00
2022-10-28T18:21:23.150Z,10.10
2022-10-28T18:23:54.387Z,10.50
2022-10-28T18:26:21.487Z,9.70
2022-10-28T18:28:49.252Z,11.30
2022-10-28T18:31:18.494Z,8.40
2022-10-28T18:33:46.194Z,9.00
2022-10-28T18:36:15.079Z,9.80
2022-10-28T18:38:42.361Z,12.40
2022-10-28T18:41:13.463Z,12.70
2022-10-28T18:43:41.115Z,13.40
2022-10-28T18:46:08.697Z,12.80
2022-10-28T18:48:36.123Z,9.80
2022-10-28T18:51:09.614Z,9.30
2022-10-28T18:53:38.062Z,9.50
2022-10-28T18:56:10.717Z,6.80
2022-10-28T18:58:37.938Z,8.80
2022-10-28T19:01:13.083Z,9.40
2022-10-28T19:03:40.859Z,7.80
2022-10-28T19:06:11.047Z,7.10
2022-10-28T19:08:38.466Z,9.80
2022-10-28T19:11:06.128Z,7.50
2022-10-28T19:13:38.136Z,11.60
2022-10-28T19:16:05.430Z,10.00
2022-10-28T19:18:35.712Z,12.30
2022-10-28T19:21:04.520Z,15.60
2022-10-28T19:23:32.807Z,8.80
2022-10-28T19:26:00.037Z,12.50
2022-10-28T19:28:27.123Z,12.60
2022-10-28T19:31:04.195Z,9.00
2022-10-28T19:33:31.506Z,9.90
2022-10-28T19:36:17.813Z,9.50
2022-10-28T19:38:45.987Z,9.30
2022-10-28T19:41:14.842Z,9.30
2022-10-28T19:43:42.027Z,10.80
2022-10-28T19:46:14.408Z,10.50
2022-10-28T19:48:43.225Z,9.00
2022-10-28T19:51:13.415Z,10.70
2022-10-28T19:53:40.561Z,13.10
2022-10-28T19:56:07.787Z,7.90
2022-10-28T19:58:35.110Z,13.70
2022-10-28T20:01:06.975Z,21.70
2022-10-28T20:03:35.010Z,15.80
2022-10-28T20:06:06.750Z,11.40
2022-10-28T20:08:37.549Z,11.10
2022-10-28T20:11:06.476Z,11.30
2022-10-28T20:13:34.569Z,17.10
2022-10-28T20:16:06.742Z,19.40
2022-10-28T20:18:34.305Z,25.60
2022-10-28T20:21:08.626Z,26.20
2022-10-28T20:23:35.959Z,25.90
2022-10-28T20:26:03.834Z,16.00
2022-10-28T20:28:30.962Z,19.00
2022-10-28T20:30:58.590Z,26.00
2022-10-28T20:33:26.026Z,24.50
2022-10-28T20:35:54.089Z,29.60
2022-10-28T20:38:21.531Z,33.00
2022-10-28T20:40:50.299Z,28.50
2022-10-28T20:43:22.363Z,32.10
2022-10-28T20:45:58.791Z,36.90
2022-10-28T20:48:27.547Z,38.20
2022-10-28T20:50:59.423Z,25.40
2022-10-28T20:53:27.853Z,16.70
2022-10-28T20:55:55.949Z,11.40
2022-10-28T20:58:25.309Z,16.60
2022-10-28T21:00:53.642Z,16.30
2022-10-28T21:03:21.779Z,11.80
2022-10-28T21:05:49.032Z,14.10
2022-10-28T21:08:16.079Z,13.90
2022-10-28T21:10:43.125Z,11.60
2022-10-28T21:13:10.206Z,14.00
2022-10-28T21:15:38.304Z,23.10
2022-10-28T21:18:06.196Z,12.80
2022-10-28T21:20:35.102Z,9.40
2022-10-28T21:23:02.157Z,14.00
2022-10-28T21:25:29.306Z,10.20
2022-10-28T21:27:57.576Z,8.80
2022-10-28T21:30:25.276Z,9.10
2022-10-28T21:32:52.537Z,7.20
2022-10-28T21:35:19.846Z,8.10
2022-10-28T21:37:46.959Z,7.90
2022-10-28T21:40:14.157Z,11.00
2022-10-28T21:42:41.356Z,8.70
2022-10-28T21:45:09.101Z,7.80
2022-10-28T21:47:36.618Z,8.00
2022-10-28T21:50:04.031Z,6.80
2022-10-28T21:52:31.046Z,6.90
2022-10-28T21:54:58.272Z,13.00
2022-10-28T21:57:30.314Z,10.10
2022-10-28T21:59:57.833Z,12.50
2022-10-28T22:02:25.196Z,10.60
2022-10-28T22:04:52.840Z,10.80
2022-10-28T22:07:19.958Z,8.20
2022-10-28T22:09:47.069Z,10.90
2022-10-28T22:12:14.153Z,13.30
2022-10-28T22:14:41.171Z,10.80
2022-10-28T22:17:08.251Z,12.70
2022-10-28T22:19:35.296Z,9.30
2022-10-28T22:22:02.358Z,7.30
2022-10-28T22:24:29.398Z,9.30
2022-10-28T22:26:56.541Z,10.30
2022-10-28T22:29:23.606Z,10.30
2022-10-28T22:31:50.682Z,8.70
2022-10-28T22:34:17.627Z,7.40
2022-10-28T22:36:45.243Z,7.10
2022-10-28T22:39:12.316Z,7.20
2022-10-28T22:41:39.448Z,6.10
2022-10-28T22:44:07.921Z,8.30
2022-10-28T22:46:36.756Z,7.90
2022-10-28T22:49:04.364Z,8.70
2022-10-28T22:51:32.134Z,8.90
2022-10-28T22:53:59.387Z,9.00
2022-10-28T22:56:27.563Z,8.30
2022-10-28T22:58:56.095Z,7.40
2022-10-28T23:01:23.394Z,6.00
2022-10-28T23:03:51.708Z,9.40
2022-10-28T23:06:20.584Z,11.30
2022-10-28T23:08:47.629Z,7.90
2022-10-28T23:11:16.278Z,6.00
2022-10-28T23:13:43.552Z,8.70
2022-10-28T23:16:14.909Z,7.40
2022-10-28T23:18:42.676Z,7.90
2022-10-28T23:21:14.626Z,9.50
2022-10-28T23:23:41.976Z,10.40
2022-10-28T23:26:10.385Z,12.60
2022-10-28T23:28:37.332Z,9.00
2022-10-28T23:31:05.117Z,8.40
2022-10-28T23:33:32.936Z,9.10
2022-10-28T23:36:01.105Z,10.20
2022-10-28T23:38:28.263Z,9.70
2022-10-28T23:40:59.920Z,10.20
2022-10-28T23:43:28.082Z,9.60
2022-10-28T23:45:55.544Z,10.90
2022-10-28T23:48:22.779Z,10.60
2022-10-28T23:50:49.780Z,12.10
2022-10-28T23:53:17.142Z,10.70
2022-10-28T23:55:45.481Z,9.10
2022-10-28T23:58:13.235Z,11.20
